sensor_id;sensor_type;location;lat;lon;timestamp;P1;durP1;ratioP1;P2;durP2;ratioP2
43297;SDS011;28892;55.640;37.532;2023-08-17T00:00:47;13.75;;;5.75;;
43297;SDS011;28892;55.640;37.532;2023-08-17T00:03:12;11.70;;;6.20;;
43297;SDS011;28892;55.640;37.532;2023-08-17T00:05:39;12.05;;;6.35;;
43297;SDS011;28892;55.640;37.532;2023-08-17T00:08:08;8.82;;;6.00;;
43297;SDS011;28892;55.640;37.532;2023-08-17T00:10:34;12.25;;;5.93;;
43297;SDS011;28892;55.640;37.532;2023-08-17T00:13:01;12.65;;;6.75;;
43297;SDS011;28892;55.640;37.532;2023-08-17T00:15:34;14.05;;;6.10;;
43297;SDS011;28892;55.640;37.532;2023-08-17T00:18:01;10.88;;;6.13;;
43297;SDS011;28892;55.640;37.532;2023-08-17T00:20:30;12.57;;;6.07;;
43297;SDS011;28892;55.640;37.532;2023-08-17T00:22:55;11.88;;;6.53;;
43297;SDS011;28892;55.640;37.532;2023-08-17T00:25:21;12.32;;;6.13;;
43297;SDS011;28892;55.640;37.532;2023-08-17T00:27:47;11.20;;;5.95;;
43297;SDS011;28892;55.640;37.532;2023-08-17T00:30:16;14.98;;;6.45;;
43297;SDS011;28892;55.640;37.532;2023-08-17T00:32:43;8.38;;;5.55;;
43297;SDS011;28892;55.640;37.532;2023-08-17T00:35:11;11.32;;;5.90;;
43297;SDS011;28892;55.640;37.532;2023-08-17T00:37:40;10.98;;;5.65;;
43297;SDS011;28892;55.640;37.532;2023-08-17T00:40:09;11.52;;;5.32;;
43297;SDS011;28892;55.640;37.532;2023-08-17T00:42:38;13.07;;;5.97;;
43297;SDS011;28892;55.640;37.532;2023-08-17T00:45:04;12.38;;;6.30;;
43297;SDS011;28892;55.640;37.532;2023-08-17T00:47:30;8.50;;;5.88;;
43297;SDS011;28892;55.640;37.532;2023-08-17T00:49:57;14.60;;;6.70;;
43297;SDS011;28892;55.640;37.532;2023-08-17T00:52:23;12.70;;;5.65;;
43297;SDS011;28892;55.640;37.532;2023-08-17T00:54:49;10.93;;;5.65;;
43297;SDS011;28892;55.640;37.532;2023-08-17T00:57:19;10.20;;;5.50;;
43297;SDS011;28892;55.640;37.532;2023-08-17T00:59:49;11.32;;;5.75;;
43297;SDS011;28892;55.640;37.532;2023-08-17T01:05:08;9.60;;;6.03;;
43297;SDS011;28892;55.640;37.532;2023-08-17T01:07:36;8.50;;;5.63;;
43297;SDS011;28892;55.640;37.532;2023-08-17T01:10:29;9.23;;;6.03;;
43297;SDS011;28892;55.640;37.532;2023-08-17T01:13:14;12.93;;;5.75;;
43297;SDS011;28892;55.640;37.532;2023-08-17T01:15:45;12.48;;;5.93;;
43297;SDS011;28892;55.640;37.532;2023-08-17T01:18:29;10.82;;;5.68;;
43297;SDS011;28892;55.640;37.532;2023-08-17T01:21:00;14.55;;;6.30;;
43297;SDS011;28892;55.640;37.532;2023-08-17T01:23:34;11.60;;;6.25;;
43297;SDS011;28892;55.640;37.532;2023-08-17T01:26:03;9.55;;;5.53;;
43297;SDS011;28892;55.640;37.532;2023-08-17T01:28:34;7.57;;;5.40;;
43297;SDS011;28892;55.640;37.532;2023-08-17T01:33:50;11.82;;;6.30;;
43297;SDS011;28892;55.640;37.532;2023-08-17T01:36:30;11.05;;;6.20;;
43297;SDS011;28892;55.640;37.532;2023-08-17T01:39:01;9.47;;;5.63;;
43297;SDS011;28892;55.640;37.532;2023-08-17T01:41:28;11.10;;;5.32;;
43297;SDS011;28892;55.640;37.532;2023-08-17T01:44:00;14.15;;;6.20;;
43297;SDS011;28892;55.640;37.532;2023-08-17T01:46:29;11.48;;;5.78;;
43297;SDS011;28892;55.640;37.532;2023-08-17T01:48:58;14.18;;;6.43;;
43297;SDS011;28892;55.640;37.532;2023-08-17T01:51:24;10.73;;;5.57;;
43297;SDS011;28892;55.640;37.532;2023-08-17T01:53:53;9.88;;;5.22;;
43297;SDS011;28892;55.640;37.532;2023-08-17T01:56:19;11.50;;;6.40;;
43297;SDS011;28892;55.640;37.532;2023-08-17T01:58:44;12.43;;;6.15;;
43297;SDS011;28892;55.640;37.532;2023-08-17T02:01:11;8.38;;;4.90;;
43297;SDS011;28892;55.640;37.532;2023-08-17T02:03:37;9.70;;;5.38;;
43297;SDS011;28892;55.640;37.532;2023-08-17T02:06:02;8.70;;;5.40;;
43297;SDS011;28892;55.640;37.532;2023-08-17T02:08:29;11.55;;;5.13;;
43297;SDS011;28892;55.640;37.532;2023-08-17T02:10:55;7.75;;;5.35;;
43297;SDS011;28892;55.640;37.532;2023-08-17T02:13:22;13.80;;;5.55;;
43297;SDS011;28892;55.640;37.532;2023-08-17T02:15:49;7.65;;;5.18;;
43297;SDS011;28892;55.640;37.532;2023-08-17T02:18:15;7.93;;;5.50;;
43297;SDS011;28892;55.640;37.532;2023-08-17T02:20:44;10.68;;;5.75;;
43297;SDS011;28892;55.640;37.532;2023-08-17T02:23:11;10.60;;;5.43;;
43297;SDS011;28892;55.640;37.532;2023-08-17T02:25:40;9.95;;;5.03;;
43297;SDS011;28892;55.640;37.532;2023-08-17T02:28:06;9.00;;;5.72;;
43297;SDS011;28892;55.640;37.532;2023-08-17T02:30:32;11.30;;;5.78;;
43297;SDS011;28892;55.640;37.532;2023-08-17T02:32:58;9.43;;;5.80;;
43297;SDS011;28892;55.640;37.532;2023-08-17T02:35:24;10.20;;;5.95;;
43297;SDS011;28892;55.640;37.532;2023-08-17T02:37:57;8.63;;;6.28;;
43297;SDS011;28892;55.640;37.532;2023-08-17T02:40:23;10.05;;;5.35;;
43297;SDS011;28892;55.640;37.532;2023-08-17T02:42:52;9.45;;;5.82;;
43297;SDS011;28892;55.640;37.532;2023-08-17T02:45:21;11.18;;;6.25;;
43297;SDS011;28892;55.640;37.532;2023-08-17T02:47:48;11.27;;;6.25;;
43297;SDS011;28892;55.640;37.532;2023-08-17T02:50:14;10.77;;;5.90;;
43297;SDS011;28892;55.640;37.532;2023-08-17T02:52:43;10.38;;;6.10;;
43297;SDS011;28892;55.640;37.532;2023-08-17T02:55:12;13.00;;;6.20;;
43297;SDS011;28892;55.640;37.532;2023-08-17T02:57:38;10.02;;;6.00;;
43297;SDS011;28892;55.640;37.532;2023-08-17T03:00:07;8.43;;;5.72;;
43297;SDS011;28892;55.640;37.532;2023-08-17T03:02:34;9.23;;;5.65;;
43297;SDS011;28892;55.640;37.532;2023-08-17T03:05:04;10.50;;;6.15;;
43297;SDS011;28892;55.640;37.532;2023-08-17T03:07:30;11.55;;;6.15;;
43297;SDS011;28892;55.640;37.532;2023-08-17T03:09:56;12.75;;;6.38;;
43297;SDS011;28892;55.640;37.532;2023-08-17T03:12:22;12.20;;;6.20;;
43297;SDS011;28892;55.640;37.532;2023-08-17T03:14:47;10.82;;;6.40;;
43297;SDS011;28892;55.640;37.532;2023-08-17T03:17:14;12.30;;;6.35;;
43297;SDS011;28892;55.640;37.532;2023-08-17T03:19:40;17.45;;;6.65;;
43297;SDS011;28892;55.640;37.532;2023-08-17T03:22:06;9.07;;;6.07;;
43297;SDS011;28892;55.640;37.532;2023-08-17T03:24:32;9.05;;;5.82;;
43297;SDS011;28892;55.640;37.532;2023-08-17T03:26:59;10.10;;;6.20;;
43297;SDS011;28892;55.640;37.532;2023-08-17T03:29:25;10.45;;;5.90;;
43297;SDS011;28892;55.640;37.532;2023-08-17T03:31:52;10.80;;;6.97;;
43297;SDS011;28892;55.640;37.532;2023-08-17T03:34:18;11.63;;;5.88;;
43297;SDS011;28892;55.640;37.532;2023-08-17T03:36:44;10.43;;;6.68;;
43297;SDS011;28892;55.640;37.532;2023-08-17T03:39:11;11.27;;;7.13;;
43297;SDS011;28892;55.640;37.532;2023-08-17T03:41:36;11.57;;;6.43;;
43297;SDS011;28892;55.640;37.532;2023-08-17T03:44:03;13.45;;;6.93;;
43297;SDS011;28892;55.640;37.532;2023-08-17T03:46:31;13.13;;;6.80;;
43297;SDS011;28892;55.640;37.532;2023-08-17T03:48:57;10.50;;;6.30;;
43297;SDS011;28892;55.640;37.532;2023-08-17T03:51:23;9.02;;;6.03;;
43297;SDS011;28892;55.640;37.532;2023-08-17T03:53:50;8.98;;;6.15;;
43297;SDS011;28892;55.640;37.532;2023-08-17T03:56:16;8.52;;;6.30;;
43297;SDS011;28892;55.640;37.532;2023-08-17T03:58:42;8.32;;;5.45;;
43297;SDS011;28892;55.640;37.532;2023-08-17T04:01:09;9.10;;;5.60;;
43297;SDS011;28892;55.640;37.532;2023-08-17T04:03:38;8.05;;;5.47;;
43297;SDS011;28892;55.640;37.532;2023-08-17T04:06:05;7.70;;;5.50;;
43297;SDS011;28892;55.640;37.532;2023-08-17T04:08:32;10.13;;;5.70;;
43297;SDS011;28892;55.640;37.532;2023-08-17T04:10:58;7.78;;;5.50;;
43297;SDS011;28892;55.640;37.532;2023-08-17T04:13:26;9.23;;;5.55;;
43297;SDS011;28892;55.640;37.532;2023-08-17T04:15:52;8.88;;;5.40;;
43297;SDS011;28892;55.640;37.532;2023-08-17T04:18:18;7.25;;;5.15;;
43297;SDS011;28892;55.640;37.532;2023-08-17T04:20:44;8.95;;;4.95;;
43297;SDS011;28892;55.640;37.532;2023-08-17T04:23:12;5.38;;;4.63;;
43297;SDS011;28892;55.640;37.532;2023-08-17T04:25:38;6.95;;;4.50;;
43297;SDS011;28892;55.640;37.532;2023-08-17T04:28:03;8.60;;;5.05;;
43297;SDS011;28892;55.640;37.532;2023-08-17T04:30:31;7.60;;;4.93;;
43297;SDS011;28892;55.640;37.532;2023-08-17T04:33:00;9.05;;;5.15;;
43297;SDS011;28892;55.640;37.532;2023-08-17T04:35:25;7.00;;;5.15;;
43297;SDS011;28892;55.640;37.532;2023-08-17T04:37:51;9.48;;;5.10;;
43297;SDS011;28892;55.640;37.532;2023-08-17T04:40:18;8.75;;;4.97;;
43297;SDS011;28892;55.640;37.532;2023-08-17T04:42:44;7.10;;;4.38;;
43297;SDS011;28892;55.640;37.532;2023-08-17T04:45:10;6.22;;;4.75;;
43297;SDS011;28892;55.640;37.532;2023-08-17T04:47:39;6.47;;;4.40;;
43297;SDS011;28892;55.640;37.532;2023-08-17T04:50:06;6.60;;;4.50;;
43297;SDS011;28892;55.640;37.532;2023-08-17T04:52:34;6.15;;;4.22;;
43297;SDS011;28892;55.640;37.532;2023-08-17T04:55:01;6.72;;;4.28;;
43297;SDS011;28892;55.640;37.532;2023-08-17T04:57:30;8.00;;;4.22;;
43297;SDS011;28892;55.640;37.532;2023-08-17T04:59:57;7.85;;;4.57;;
43297;SDS011;28892;55.640;37.532;2023-08-17T05:02:22;8.93;;;4.10;;
43297;SDS011;28892;55.640;37.532;2023-08-17T05:04:49;8.00;;;4.68;;
43297;SDS011;28892;55.640;37.532;2023-08-17T05:07:15;6.50;;;4.35;;
43297;SDS011;28892;55.640;37.532;2023-08-17T05:09:41;9.25;;;4.72;;
43297;SDS011;28892;55.640;37.532;2023-08-17T05:12:08;8.88;;;4.82;;
43297;SDS011;28892;55.640;37.532;2023-08-17T05:14:37;6.00;;;4.22;;
43297;SDS011;28892;55.640;37.532;2023-08-17T05:17:03;6.70;;;4.50;;
43297;SDS011;28892;55.640;37.532;2023-08-17T05:19:29;9.38;;;4.78;;
43297;SDS011;28892;55.640;37.532;2023-08-17T05:21:56;11.48;;;4.85;;
43297;SDS011;28892;55.640;37.532;2023-08-17T05:24:31;7.80;;;4.70;;
43297;SDS011;28892;55.640;37.532;2023-08-17T05:27:01;7.82;;;4.88;;
43297;SDS011;28892;55.640;37.532;2023-08-17T05:29:27;5.95;;;4.90;;
43297;SDS011;28892;55.640;37.532;2023-08-17T05:31:57;7.07;;;4.85;;
43297;SDS011;28892;55.640;37.532;2023-08-17T05:34:23;7.07;;;4.70;;
43297;SDS011;28892;55.640;37.532;2023-08-17T05:36:53;7.47;;;5.00;;
43297;SDS011;28892;55.640;37.532;2023-08-17T05:39:19;8.88;;;5.03;;
43297;SDS011;28892;55.640;37.532;2023-08-17T05:41:45;8.95;;;5.05;;
43297;SDS011;28892;55.640;37.532;2023-08-17T05:44:11;8.68;;;4.55;;
43297;SDS011;28892;55.640;37.532;2023-08-17T05:46:38;8.88;;;5.10;;
43297;SDS011;28892;55.640;37.532;2023-08-17T05:49:04;9.75;;;5.03;;
43297;SDS011;28892;55.640;37.532;2023-08-17T05:51:30;8.77;;;4.65;;
43297;SDS011;28892;55.640;37.532;2023-08-17T05:53:56;8.25;;;4.68;;
43297;SDS011;28892;55.640;37.532;2023-08-17T05:56:22;4.82;;;3.45;;
43297;SDS011;28892;55.640;37.532;2023-08-17T05:58:48;7.45;;;4.90;;
43297;SDS011;28892;55.640;37.532;2023-08-17T06:01:14;5.15;;;3.05;;
43297;SDS011;28892;55.640;37.532;2023-08-17T06:03:40;5.38;;;3.15;;
43297;SDS011;28892;55.640;37.532;2023-08-17T06:06:06;7.63;;;3.63;;
43297;SDS011;28892;55.640;37.532;2023-08-17T06:08:32;7.63;;;2.92;;
43297;SDS011;28892;55.640;37.532;2023-08-17T06:10:58;5.63;;;3.20;;
43297;SDS011;28892;55.640;37.532;2023-08-17T06:13:24;7.07;;;3.38;;
43297;SDS011;28892;55.640;37.532;2023-08-17T06:15:50;6.35;;;3.10;;
43297;SDS011;28892;55.640;37.532;2023-08-17T06:18:17;6.15;;;2.97;;
43297;SDS011;28892;55.640;37.532;2023-08-17T06:20:42;4.90;;;3.17;;
43297;SDS011;28892;55.640;37.532;2023-08-17T06:23:08;6.03;;;3.17;;
43297;SDS011;28892;55.640;37.532;2023-08-17T06:25:34;8.80;;;3.08;;
43297;SDS011;28892;55.640;37.532;2023-08-17T06:28:00;7.45;;;3.08;;
43297;SDS011;28892;55.640;37.532;2023-08-17T06:30:27;9.98;;;4.32;;
43297;SDS011;28892;55.640;37.532;2023-08-17T06:32:53;12.07;;;3.50;;
43297;SDS011;28892;55.640;37.532;2023-08-17T06:35:22;5.90;;;3.03;;
43297;SDS011;28892;55.640;37.532;2023-08-17T06:37:47;6.43;;;3.40;;
43297;SDS011;28892;55.640;37.532;2023-08-17T06:40:13;3.95;;;3.20;;
43297;SDS011;28892;55.640;37.532;2023-08-17T06:42:42;6.07;;;3.10;;
43297;SDS011;28892;55.640;37.532;2023-08-17T06:45:08;4.97;;;3.53;;
43297;SDS011;28892;55.640;37.532;2023-08-17T06:47:35;6.03;;;3.53;;
43297;SDS011;28892;55.640;37.532;2023-08-17T06:50:00;5.88;;;3.40;;
43297;SDS011;28892;55.640;37.532;2023-08-17T06:52:29;6.13;;;3.60;;
43297;SDS011;28892;55.640;37.532;2023-08-17T06:54:54;6.93;;;4.07;;
43297;SDS011;28892;55.640;37.532;2023-08-17T06:57:20;9.18;;;3.83;;
43297;SDS011;28892;55.640;37.532;2023-08-17T06:59:47;6.38;;;4.00;;
43297;SDS011;28892;55.640;37.532;2023-08-17T07:02:13;8.35;;;5.10;;
43297;SDS011;28892;55.640;37.532;2023-08-17T07:04:42;8.77;;;5.10;;
43297;SDS011;28892;55.640;37.532;2023-08-17T07:07:08;7.40;;;4.07;;
43297;SDS011;28892;55.640;37.532;2023-08-17T07:09:34;12.13;;;3.65;;
43297;SDS011;28892;55.640;37.532;2023-08-17T07:12:00;4.97;;;3.67;;
43297;SDS011;28892;55.640;37.532;2023-08-17T07:14:25;9.57;;;3.58;;
43297;SDS011;28892;55.640;37.532;2023-08-17T07:16:51;7.10;;;4.30;;
43297;SDS011;28892;55.640;37.532;2023-08-17T07:19:21;6.32;;;3.95;;
43297;SDS011;28892;55.640;37.532;2023-08-17T07:21:47;6.60;;;3.97;;
43297;SDS011;28892;55.640;37.532;2023-08-17T07:24:13;7.25;;;3.92;;
43297;SDS011;28892;55.640;37.532;2023-08-17T07:26:41;7.93;;;5.32;;
43297;SDS011;28892;55.640;37.532;2023-08-17T07:29:07;7.68;;;5.65;;
43297;SDS011;28892;55.640;37.532;2023-08-17T07:31:33;8.32;;;5.43;;
43297;SDS011;28892;55.640;37.532;2023-08-17T07:33:59;7.05;;;5.35;;
43297;SDS011;28892;55.640;37.532;2023-08-17T07:36:26;5.57;;;3.85;;
43297;SDS011;28892;55.640;37.532;2023-08-17T07:38:52;7.47;;;3.33;;
43297;SDS011;28892;55.640;37.532;2023-08-17T07:41:18;5.90;;;3.20;;
43297;SDS011;28892;55.640;37.532;2023-08-17T07:43:43;4.25;;;2.58;;
43297;SDS011;28892;55.640;37.532;2023-08-17T07:46:09;3.67;;;2.72;;
43297;SDS011;28892;55.640;37.532;2023-08-17T07:48:35;4.60;;;2.90;;
43297;SDS011;28892;55.640;37.532;2023-08-17T07:51:01;4.35;;;3.03;;
43297;SDS011;28892;55.640;37.532;2023-08-17T07:53:26;7.78;;;3.25;;
43297;SDS011;28892;55.640;37.532;2023-08-17T07:55:53;3.67;;;2.40;;
43297;SDS011;28892;55.640;37.532;2023-08-17T07:58:18;5.07;;;2.78;;
43297;SDS011;28892;55.640;37.532;2023-08-17T08:00:47;5.13;;;2.80;;
43297;SDS011;28892;55.640;37.532;2023-08-17T08:03:14;3.90;;;2.65;;
43297;SDS011;28892;55.640;37.532;2023-08-17T08:05:40;4.72;;;2.67;;
43297;SDS011;28892;55.640;37.532;2023-08-17T08:08:06;3.95;;;2.60;;
43297;SDS011;28892;55.640;37.532;2023-08-17T08:10:32;3.30;;;2.30;;
43297;SDS011;28892;55.640;37.532;2023-08-17T08:12:58;4.53;;;2.70;;
43297;SDS011;28892;55.640;37.532;2023-08-17T08:15:24;4.97;;;2.63;;
43297;SDS011;28892;55.640;37.532;2023-08-17T08:17:50;3.75;;;2.45;;
43297;SDS011;28892;55.640;37.532;2023-08-17T08:20:16;4.47;;;3.00;;
43297;SDS011;28892;55.640;37.532;2023-08-17T08:22:42;4.30;;;2.40;;
43297;SDS011;28892;55.640;37.532;2023-08-17T08:25:10;3.83;;;2.60;;
43297;SDS011;28892;55.640;37.532;2023-08-17T08:27:36;4.20;;;2.75;;
43297;SDS011;28892;55.640;37.532;2023-08-17T08:30:02;3.53;;;2.40;;
43297;SDS011;28892;55.640;37.532;2023-08-17T08:32:30;4.50;;;2.22;;
43297;SDS011;28892;55.640;37.532;2023-08-17T08:34:56;7.32;;;2.58;;
43297;SDS011;28892;55.640;37.532;2023-08-17T08:37:22;5.57;;;2.83;;
43297;SDS011;28892;55.640;37.532;2023-08-17T08:39:51;7.03;;;3.20;;
43297;SDS011;28892;55.640;37.532;2023-08-17T08:42:20;5.07;;;2.92;;
43297;SDS011;28892;55.640;37.532;2023-08-17T08:45:03;5.78;;;4.22;;
43297;SDS011;28892;55.640;37.532;2023-08-17T08:47:31;4.97;;;3.10;;
43297;SDS011;28892;55.640;37.532;2023-08-17T08:50:00;3.95;;;2.28;;
43297;SDS011;28892;55.640;37.532;2023-08-17T08:52:35;7.10;;;2.55;;
43297;SDS011;28892;55.640;37.532;2023-08-17T08:55:15;5.35;;;2.85;;
43297;SDS011;28892;55.640;37.532;2023-08-17T08:57:46;7.07;;;4.47;;
43297;SDS011;28892;55.640;37.532;2023-08-17T09:00:12;5.95;;;3.10;;
43297;SDS011;28892;55.640;37.532;2023-08-17T09:02:39;6.20;;;3.33;;
43297;SDS011;28892;55.640;37.532;2023-08-17T09:05:06;4.35;;;2.72;;
43297;SDS011;28892;55.640;37.532;2023-08-17T09:07:34;5.22;;;3.67;;
43297;SDS011;28892;55.640;37.532;2023-08-17T09:10:01;4.95;;;3.15;;
43297;SDS011;28892;55.640;37.532;2023-08-17T09:12:30;5.18;;;2.65;;
43297;SDS011;28892;55.640;37.532;2023-08-17T09:14:56;4.97;;;2.97;;
43297;SDS011;28892;55.640;37.532;2023-08-17T09:17:26;5.50;;;2.80;;
43297;SDS011;28892;55.640;37.532;2023-08-17T09:19:53;4.55;;;3.10;;
43297;SDS011;28892;55.640;37.532;2023-08-17T09:22:26;7.47;;;3.20;;
43297;SDS011;28892;55.640;37.532;2023-08-17T09:25:08;5.65;;;2.95;;
43297;SDS011;28892;55.640;37.532;2023-08-17T09:27:41;6.80;;;2.88;;
43297;SDS011;28892;55.640;37.532;2023-08-17T09:30:11;3.90;;;2.95;;
43297;SDS011;28892;55.640;37.532;2023-08-17T09:32:40;7.55;;;3.00;;
43297;SDS011;28892;55.640;37.532;2023-08-17T09:35:07;5.30;;;3.03;;
43297;SDS011;28892;55.640;37.532;2023-08-17T09:37:33;10.43;;;3.30;;
43297;SDS011;28892;55.640;37.532;2023-08-17T09:40:00;6.18;;;2.70;;
43297;SDS011;28892;55.640;37.532;2023-08-17T09:42:26;5.28;;;2.80;;
43297;SDS011;28892;55.640;37.532;2023-08-17T09:44:55;8.80;;;3.28;;
43297;SDS011;28892;55.640;37.532;2023-08-17T09:47:21;8.50;;;3.08;;
43297;SDS011;28892;55.640;37.532;2023-08-17T09:49:49;9.13;;;3.38;;
43297;SDS011;28892;55.640;37.532;2023-08-17T09:52:18;4.95;;;2.97;;
43297;SDS011;28892;55.640;37.532;2023-08-17T09:54:45;6.35;;;3.55;;
43297;SDS011;28892;55.640;37.532;2023-08-17T09:57:15;4.78;;;3.05;;
43297;SDS011;28892;55.640;37.532;2023-08-17T09:59:41;8.52;;;4.38;;
43297;SDS011;28892;55.640;37.532;2023-08-17T10:02:14;5.32;;;3.45;;
43297;SDS011;28892;55.640;37.532;2023-08-17T10:04:49;5.90;;;3.00;;
43297;SDS011;28892;55.640;37.532;2023-08-17T10:07:19;3.83;;;3.10;;
43297;SDS011;28892;55.640;37.532;2023-08-17T10:14:06;4.60;;;2.85;;
43297;SDS011;28892;55.640;37.532;2023-08-17T10:16:53;9.90;;;3.03;;
43297;SDS011;28892;55.640;37.532;2023-08-17T10:19:29;6.60;;;3.50;;
43297;SDS011;28892;55.640;37.532;2023-08-17T10:22:17;7.35;;;4.32;;
43297;SDS011;28892;55.640;37.532;2023-08-17T10:25:04;6.05;;;4.60;;
43297;SDS011;28892;55.640;37.532;2023-08-17T10:27:31;7.93;;;6.63;;
43297;SDS011;28892;55.640;37.532;2023-08-17T10:29:58;7.50;;;4.53;;
43297;SDS011;28892;55.640;37.532;2023-08-17T10:32:25;7.22;;;4.15;;
43297;SDS011;28892;55.640;37.532;2023-08-17T10:34:52;6.45;;;4.05;;
43297;SDS011;28892;55.640;37.532;2023-08-17T10:37:19;4.78;;;3.22;;
43297;SDS011;28892;55.640;37.532;2023-08-17T10:39:47;7.70;;;3.20;;
43297;SDS011;28892;55.640;37.532;2023-08-17T10:42:14;5.40;;;2.92;;
43297;SDS011;28892;55.640;37.532;2023-08-17T10:44:45;5.40;;;3.08;;
43297;SDS011;28892;55.640;37.532;2023-08-17T10:49:59;3.85;;;2.90;;
43297;SDS011;28892;55.640;37.532;2023-08-17T10:52:32;4.40;;;2.80;;
43297;SDS011;28892;55.640;37.532;2023-08-17T10:55:07;8.77;;;4.80;;
43297;SDS011;28892;55.640;37.532;2023-08-17T10:57:39;4.53;;;3.03;;
43297;SDS011;28892;55.640;37.532;2023-08-17T11:00:07;8.50;;;3.08;;
43297;SDS011;28892;55.640;37.532;2023-08-17T11:02:52;8.05;;;4.85;;
43297;SDS011;28892;55.640;37.532;2023-08-17T11:06:13;5.78;;;3.55;;
43297;SDS011;28892;55.640;37.532;2023-08-17T11:11:06;8.18;;;3.22;;
43297;SDS011;28892;55.640;37.532;2023-08-17T11:13:36;9.32;;;2.78;;
43297;SDS011;28892;55.640;37.532;2023-08-17T11:16:07;4.85;;;3.40;;
43297;SDS011;28892;55.640;37.532;2023-08-17T11:18:34;6.57;;;3.13;;
43297;SDS011;28892;55.640;37.532;2023-08-17T11:21:05;4.60;;;3.20;;
43297;SDS011;28892;55.640;37.532;2023-08-17T11:23:33;3.75;;;2.90;;
43297;SDS011;28892;55.640;37.532;2023-08-17T11:26:00;7.63;;;2.78;;
43297;SDS011;28892;55.640;37.532;2023-08-17T11:28:30;7.43;;;4.05;;
43297;SDS011;28892;55.640;37.532;2023-08-17T11:31:02;6.03;;;3.83;;
43297;SDS011;28892;55.640;37.532;2023-08-17T11:33:31;6.32;;;2.90;;
43297;SDS011;28892;55.640;37.532;2023-08-17T11:35:57;6.63;;;3.60;;
43297;SDS011;28892;55.640;37.532;2023-08-17T11:38:25;5.68;;;3.05;;
43297;SDS011;28892;55.640;37.532;2023-08-17T11:40:51;6.10;;;3.05;;
43297;SDS011;28892;55.640;37.532;2023-08-17T11:43:18;4.22;;;2.90;;
43297;SDS011;28892;55.640;37.532;2023-08-17T11:45:46;4.55;;;2.92;;
43297;SDS011;28892;55.640;37.532;2023-08-17T11:48:12;5.60;;;2.90;;
43297;SDS011;28892;55.640;37.532;2023-08-17T11:50:38;7.22;;;3.55;;
43297;SDS011;28892;55.640;37.532;2023-08-17T11:53:09;5.93;;;3.08;;
43297;SDS011;28892;55.640;37.532;2023-08-17T11:55:38;5.47;;;3.10;;
43297;SDS011;28892;55.640;37.532;2023-08-17T11:58:04;7.45;;;3.65;;
43297;SDS011;28892;55.640;37.532;2023-08-17T12:00:34;5.03;;;2.95;;
43297;SDS011;28892;55.640;37.532;2023-08-17T12:03:04;5.47;;;3.00;;
43297;SDS011;28892;55.640;37.532;2023-08-17T12:05:30;5.32;;;2.90;;
43297;SDS011;28892;55.640;37.532;2023-08-17T12:07:58;5.20;;;2.88;;
43297;SDS011;28892;55.640;37.532;2023-08-17T12:10:32;6.00;;;3.13;;
43297;SDS011;28892;55.640;37.532;2023-08-17T12:12:59;5.22;;;3.13;;
43297;SDS011;28892;55.640;37.532;2023-08-17T12:15:33;5.22;;;3.15;;
43297;SDS011;28892;55.640;37.532;2023-08-17T12:18:02;5.43;;;2.90;;
43297;SDS011;28892;55.640;37.532;2023-08-17T12:20:40;5.63;;;3.05;;
43297;SDS011;28892;55.640;37.532;2023-08-17T12:23:09;7.07;;;3.08;;
43297;SDS011;28892;55.640;37.532;2023-08-17T12:25:35;4.47;;;2.95;;
43297;SDS011;28892;55.640;37.532;2023-08-17T12:28:00;7.97;;;4.68;;
43297;SDS011;28892;55.640;37.532;2023-08-17T12:30:31;6.28;;;4.60;;
43297;SDS011;28892;55.640;37.532;2023-08-17T12:33:03;8.60;;;3.53;;
43297;SDS011;28892;55.640;37.532;2023-08-17T12:35:29;3.80;;;3.40;;
43297;SDS011;28892;55.640;37.532;2023-08-17T12:37:56;7.35;;;3.97;;
43297;SDS011;28892;55.640;37.532;2023-08-17T12:40:25;4.75;;;3.40;;
43297;SDS011;28892;55.640;37.532;2023-08-17T12:42:51;7.25;;;2.97;;
43297;SDS011;28892;55.640;37.532;2023-08-17T12:45:17;4.45;;;3.33;;
43297;SDS011;28892;55.640;37.532;2023-08-17T12:47:43;6.97;;;3.58;;
43297;SDS011;28892;55.640;37.532;2023-08-17T12:50:09;7.32;;;3.22;;
43297;SDS011;28892;55.640;37.532;2023-08-17T12:52:35;3.70;;;3.10;;
43297;SDS011;28892;55.640;37.532;2023-08-17T12:55:01;6.30;;;3.70;;
43297;SDS011;28892;55.640;37.532;2023-08-17T12:57:32;6.05;;;3.42;;
43297;SDS011;28892;55.640;37.532;2023-08-17T13:00:26;6.00;;;4.47;;
43297;SDS011;28892;55.640;37.532;2023-08-17T13:04:11;5.72;;;3.35;;
43297;SDS011;28892;55.640;37.532;2023-08-17T13:06:44;7.90;;;3.30;;
43297;SDS011;28892;55.640;37.532;2023-08-17T13:09:17;9.60;;;3.35;;
43297;SDS011;28892;55.640;37.532;2023-08-17T13:11:50;6.28;;;3.25;;
43297;SDS011;28892;55.640;37.532;2023-08-17T13:14:16;6.20;;;3.00;;
43297;SDS011;28892;55.640;37.532;2023-08-17T13:16:42;5.55;;;3.97;;
43297;SDS011;28892;55.640;37.532;2023-08-17T13:19:11;6.20;;;3.88;;
43297;SDS011;28892;55.640;37.532;2023-08-17T13:21:37;7.35;;;3.55;;
43297;SDS011;28892;55.640;37.532;2023-08-17T13:24:03;4.07;;;3.10;;
43297;SDS011;28892;55.640;37.532;2023-08-17T13:26:47;5.20;;;2.85;;
43297;SDS011;28892;55.640;37.532;2023-08-17T13:29:18;8.45;;;3.15;;
43297;SDS011;28892;55.640;37.532;2023-08-17T13:31:47;5.57;;;3.40;;
43297;SDS011;28892;55.640;37.532;2023-08-17T13:34:16;7.32;;;3.80;;
43297;SDS011;28892;55.640;37.532;2023-08-17T13:36:45;7.50;;;3.58;;
43297;SDS011;28892;55.640;37.532;2023-08-17T13:39:11;6.85;;;3.70;;
43297;SDS011;28892;55.640;37.532;2023-08-17T13:41:36;7.25;;;3.60;;
43297;SDS011;28892;55.640;37.532;2023-08-17T13:44:16;8.15;;;6.32;;
43297;SDS011;28892;55.640;37.532;2023-08-17T13:47:11;6.95;;;4.50;;
43297;SDS011;28892;55.640;37.532;2023-08-17T13:49:46;6.65;;;4.40;;
43297;SDS011;28892;55.640;37.532;2023-08-17T13:52:25;7.43;;;3.60;;
43297;SDS011;28892;55.640;37.532;2023-08-17T13:54:51;5.15;;;3.90;;
43297;SDS011;28892;55.640;37.532;2023-08-17T13:57:18;11.55;;;4.35;;
43297;SDS011;28892;55.640;37.532;2023-08-17T13:59:54;7.10;;;4.57;;
43297;SDS011;28892;55.640;37.532;2023-08-17T14:02:20;6.97;;;4.38;;
43297;SDS011;28892;55.640;37.532;2023-08-17T14:04:45;11.40;;;7.38;;
43297;SDS011;28892;55.640;37.532;2023-08-17T14:07:11;9.15;;;4.80;;
43297;SDS011;28892;55.640;37.532;2023-08-17T14:09:37;8.23;;;5.15;;
43297;SDS011;28892;55.640;37.532;2023-08-17T14:12:03;8.93;;;4.38;;
43297;SDS011;28892;55.640;37.532;2023-08-17T14:14:30;7.80;;;4.43;;
43297;SDS011;28892;55.640;37.532;2023-08-17T14:16:59;6.68;;;3.67;;
43297;SDS011;28892;55.640;37.532;2023-08-17T14:19:24;5.10;;;2.90;;
43297;SDS011;28892;55.640;37.532;2023-08-17T14:21:50;6.45;;;3.30;;
43297;SDS011;28892;55.640;37.532;2023-08-17T14:24:23;7.10;;;3.20;;
43297;SDS011;28892;55.640;37.532;2023-08-17T14:26:49;5.90;;;3.28;;
43297;SDS011;28892;55.640;37.532;2023-08-17T14:29:15;6.88;;;3.70;;
43297;SDS011;28892;55.640;37.532;2023-08-17T14:31:42;7.85;;;5.15;;
43297;SDS011;28892;55.640;37.532;2023-08-17T14:34:10;12.70;;;6.82;;
43297;SDS011;28892;55.640;37.532;2023-08-17T14:36:37;5.63;;;3.88;;
43297;SDS011;28892;55.640;37.532;2023-08-17T14:39:10;5.40;;;3.50;;
43297;SDS011;28892;55.640;37.532;2023-08-17T14:41:36;6.88;;;4.10;;
43297;SDS011;28892;55.640;37.532;2023-08-17T14:44:02;7.78;;;4.00;;
43297;SDS011;28892;55.640;37.532;2023-08-17T14:46:29;6.13;;;3.33;;
43297;SDS011;28892;55.640;37.532;2023-08-17T14:48:56;6.95;;;4.05;;
43297;SDS011;28892;55.640;37.532;2023-08-17T14:51:23;7.78;;;4.45;;
43297;SDS011;28892;55.640;37.532;2023-08-17T14:53:49;6.25;;;4.43;;